Time;durP1;ratioP1;P1;durP2;ratioP2;P2;SDS_P1;SDS_P2;PMS_P1;PMS_P2;Temp;Humidity;BMP_temperature;BMP_pressure;BME280_temperature;BME280_humidity;BME280_pressure;Samples;Min_cycle;Max_cycle;Signal;HPM_P1;HPM_P2
2022/05/18 00:00:27;;;;;;;;;;;18.80;95.20;;;;;;4975943;28;20375;-76
2022/05/18 00:02:54;;;;;;;;;;;18.70;95.10;;;;;;4981202;28;19933;-77
2022/05/18 00:05:24;;;;;;;;;;;18.70;95.20;;;;;;4985907;28;19925;-77
2022/05/18 00:07:51;;;;;;;;;;;18.70;95.20;;;;;;4984479;28;19944;-76
2022/05/18 00:10:20;;;;;;;;;;;18.60;95.20;;;;;;4980748;28;19932;-76
2022/05/18 00:12:49;;;;;;;;;;;18.60;95.20;;;;;;4981343;28;20093;-76
2022/05/18 00:15:17;;;;;;;;;;;18.60;95.20;;;;;;4995442;28;20292;-77
2022/05/18 00:17:45;;;;;;;;;;;18.60;95.30;;;;;;4979455;28;19987;-77
2022/05/18 00:20:13;;;;;;;;;;;18.60;95.40;;;;;;4981319;28;19944;-76
2022/05/18 00:22:47;;;;;;;;;;;18.50;95.30;;;;;;4982807;28;19940;-77
2022/05/18 00:25:15;;;;;;;;;;;18.50;95.30;;;;;;4982851;28;20634;-76
2022/05/18 00:27:42;;;;;;;;;;;18.50;95.30;;;;;;4982687;28;22017;-77
2022/05/18 00:30:12;;;;;;;;;;;18.40;95.30;;;;;;4980900;28;19933;-77
2022/05/18 00:32:39;;;;;;;;;;;18.40;95.30;;;;;;4980142;28;20058;-76
2022/05/18 00:35:07;;;;;;;;;;;18.40;95.40;;;;;;4976313;28;19937;-76
2022/05/18 00:37:34;;;;;;;;;;;18.30;95.30;;;;;;4982944;28;19939;-76
2022/05/18 00:40:01;;;;;;;;;;;18.30;95.40;;;;;;4980651;28;20013;-76
2022/05/18 00:42:29;;;;;;;;;;;18.30;95.40;;;;;;4978121;28;20475;-76
2022/05/18 00:44:56;;;;;;;;;;;18.30;95.40;;;;;;4979745;28;20027;-76
2022/05/18 00:47:25;;;;;;;;;;;18.30;95.40;;;;;;4982452;28;20410;-77
2022/05/18 00:49:54;;;;;;;;;;;18.30;95.50;;;;;;4977105;28;19934;-76
2022/05/18 00:52:24;;;;;;;;;;;18.20;95.40;;;;;;4981841;28;19940;-76
2022/05/18 00:54:51;;;;;;;;;;;18.20;95.50;;;;;;4982887;28;19955;-77
2022/05/18 00:57:20;;;;;;;;;;;18.20;95.50;;;;;;4981573;28;20521;-75
2022/05/18 00:59:50;;;;;;;;;;;18.10;95.40;;;;;;4983397;28;19933;-77
2022/05/18 01:02:18;;;;;;;;;;;18.10;95.40;;;;;;4979918;28;19990;-77
2022/05/18 01:04:50;;;;;;;;;;;18.10;95.50;;;;;;4980859;28;19934;-75
2022/05/18 01:07:19;;;;;;;;;;;18.10;95.50;;;;;;4978932;28;19944;-76
2022/05/18 01:09:48;;;;;;;;;;;18.10;95.50;;;;;;4984580;28;19934;-77
2022/05/18 01:12:19;;;;;;;;;;;18.00;95.50;;;;;;4977789;28;19932;-76
2022/05/18 01:14:47;;;;;;;;;;;18.00;95.50;;;;;;4979561;28;19940;-76
2022/05/18 01:17:15;;;;;;;;;;;17.90;95.50;;;;;;4980899;28;19933;-77
2022/05/18 01:19:44;;;;;;;;;;;17.90;95.50;;;;;;4980220;28;20040;-76
2022/05/18 01:22:16;;;;;;;;;;;17.90;95.50;;;;;;4980489;28;20023;-76
2022/05/18 01:24:48;;;;;;;;;;;17.90;95.50;;;;;;4980465;28;19932;-77
2022/05/18 01:27:16;;;;;;;;;;;17.80;95.80;;;;;;4981832;28;19929;-80
2022/05/18 01:29:43;;;;;;;;;;;17.80;95.50;;;;;;4981418;28;20415;-80
2022/05/18 01:32:14;;;;;;;;;;;17.80;95.50;;;;;;4981752;28;19956;-80
2022/05/18 01:34:42;;;;;;;;;;;17.80;95.60;;;;;;4979819;28;19939;-79
2022/05/18 01:37:09;;;;;;;;;;;17.70;95.50;;;;;;4983311;28;19925;-79
2022/05/18 01:39:37;;;;;;;;;;;17.80;95.60;;;;;;4977880;28;20319;-78
2022/05/18 01:42:09;;;;;;;;;;;17.80;95.60;;;;;;4980238;28;20434;-79
2022/05/18 01:44:39;;;;;;;;;;;17.70;95.60;;;;;;4995339;28;20272;-79
2022/05/18 01:47:06;;;;;;;;;;;17.70;95.60;;;;;;4994940;28;20632;-79
2022/05/18 01:49:34;;;;;;;;;;;17.70;95.60;;;;;;4981651;28;19943;-78
2022/05/18 01:52:01;;;;;;;;;;;17.60;95.60;;;;;;4977816;28;19940;-77
2022/05/18 01:54:28;;;;;;;;;;;17.60;95.60;;;;;;4984766;28;20494;-80
2022/05/18 01:56:55;;;;;;;;;;;17.60;95.60;;;;;;4980694;28;20063;-77
2022/05/18 01:59:22;;;;;;;;;;;17.60;95.70;;;;;;4982733;28;19939;-77
2022/05/18 02:01:51;;;;;;;;;;;17.60;95.70;;;;;;4976100;28;19978;-77
2022/05/18 02:04:18;;;;;;;;;;;17.50;95.70;;;;;;4982513;28;20446;-76
2022/05/18 02:06:45;;;;;;;;;;;17.50;95.70;;;;;;5000371;28;20120;-75
2022/05/18 02:09:16;;;;;;;;;;;17.50;95.70;;;;;;4982904;28;19933;-80
2022/05/18 02:11:44;;;;;;;;;;;17.50;95.80;;;;;;4977670;28;19931;-81
2022/05/18 02:14:11;;;;;;;;;;;17.40;95.70;;;;;;4977892;28;20335;-79
2022/05/18 02:16:38;;;;;;;;;;;17.40;95.80;;;;;;4983178;28;19956;-79
2022/05/18 02:19:06;;;;;;;;;;;17.40;95.80;;;;;;4978697;28;19964;-79
2022/05/18 02:21:33;;;;;;;;;;;17.40;95.80;;;;;;4981770;28;20327;-78
2022/05/18 02:24:00;;;;;;;;;;;17.40;95.80;;;;;;4980538;28;20064;-80
2022/05/18 02:26:31;;;;;;;;;;;17.40;95.80;;;;;;4982801;28;20632;-80
2022/05/18 02:28:59;;;;;;;;;;;17.30;95.80;;;;;;4976843;28;19936;-79
2022/05/18 02:31:26;;;;;;;;;;;17.30;95.90;;;;;;4981718;28;20085;-79
2022/05/18 02:33:53;;;;;;;;;;;17.30;95.80;;;;;;4980075;28;20024;-77
2022/05/18 02:36:21;;;;;;;;;;;17.30;95.80;;;;;;4983317;28;19948;-78
2022/05/18 02:38:48;;;;;;;;;;;17.20;95.80;;;;;;4977510;28;19940;-81
2022/05/18 02:41:15;;;;;;;;;;;17.20;95.90;;;;;;4978662;28;19935;-77
2022/05/18 02:43:43;;;;;;;;;;;17.20;95.80;;;;;;4980906;28;19990;-78
2022/05/18 02:46:12;;;;;;;;;;;17.20;96.00;;;;;;4980368;28;20426;-80
2022/05/18 02:48:39;;;;;;;;;;;17.20;95.90;;;;;;4981497;28;19980;-77
2022/05/18 02:51:06;;;;;;;;;;;17.10;95.80;;;;;;4981957;28;19933;-79
2022/05/18 02:53:34;;;;;;;;;;;17.10;95.90;;;;;;4982733;28;19973;-78
2022/05/18 02:56:07;;;;;;;;;;;17.10;95.90;;;;;;4979556;28;19933;-81
2022/05/18 02:58:35;;;;;;;;;;;17.10;95.90;;;;;;4982088;28;21658;-79
2022/05/18 03:01:03;;;;;;;;;;;17.10;95.90;;;;;;4979737;28;19933;-77
2022/05/18 03:03:30;;;;;;;;;;;17.00;95.90;;;;;;4981222;28;19984;-80
2022/05/18 03:05:57;;;;;;;;;;;17.00;95.80;;;;;;4981514;28;20055;-80
2022/05/18 03:08:24;;;;;;;;;;;17.00;95.90;;;;;;4977106;28;19929;-80
2022/05/18 03:10:53;;;;;;;;;;;17.00;95.90;;;;;;4980651;28;19933;-80
2022/05/18 03:13:20;;;;;;;;;;;17.00;95.90;;;;;;4984676;28;19986;-79
2022/05/18 03:15:47;;;;;;;;;;;16.90;95.90;;;;;;4989019;28;19925;-79
2022/05/18 03:18:15;;;;;;;;;;;16.90;95.90;;;;;;4989120;28;19933;-79
2022/05/18 03:23:36;;;;;;;;;;;16.90;95.90;;;;;;4982037;28;19967;-79
2022/05/18 03:26:06;;;;;;;;;;;16.80;95.90;;;;;;4984726;28;20346;-79
2022/05/18 03:28:33;;;;;;;;;;;16.80;95.90;;;;;;4986797;28;19936;-80
2022/05/18 03:31:01;;;;;;;;;;;16.80;95.90;;;;;;4982438;28;19933;-79
2022/05/18 03:33:28;;;;;;;;;;;16.80;95.90;;;;;;4987140;28;19940;-80
2022/05/18 03:35:55;;;;;;;;;;;16.80;95.80;;;;;;4983452;28;20660;-79
2022/05/18 03:38:22;;;;;;;;;;;16.80;95.90;;;;;;4982535;28;20137;-79
2022/05/18 03:40:50;;;;;;;;;;;16.70;95.80;;;;;;4984985;28;19932;-79
2022/05/18 03:43:19;;;;;;;;;;;16.70;95.80;;;;;;4981319;28;19971;-79
2022/05/18 03:45:46;;;;;;;;;;;16.70;95.80;;;;;;4985378;28;20602;-81
2022/05/18 03:48:13;;;;;;;;;;;16.60;95.80;;;;;;4991301;28;20384;-80
2022/05/18 03:50:42;;;;;;;;;;;16.60;95.80;;;;;;4985147;28;20531;-78
2022/05/18 03:53:09;;;;;;;;;;;16.60;95.80;;;;;;4981317;28;19940;-78
2022/05/18 03:55:38;;;;;;;;;;;16.60;95.90;;;;;;4987219;28;19933;-79
2022/05/18 03:58:05;;;;;;;;;;;16.60;95.80;;;;;;4978330;28;21791;-78
2022/05/18 04:00:35;;;;;;;;;;;16.50;95.80;;;;;;4977714;28;19933;-81
2022/05/18 04:03:02;;;;;;;;;;;16.50;95.80;;;;;;4983967;28;20410;-81
2022/05/18 04:05:30;;;;;;;;;;;16.50;96.00;;;;;;4998944;28;19933;-77
2022/05/18 04:07:57;;;;;;;;;;;16.50;96.10;;;;;;4987851;28;19933;-81
2022/05/18 04:10:24;;;;;;;;;;;16.40;96.40;;;;;;4989863;28;20436;-78
2022/05/18 04:12:51;;;;;;;;;;;16.40;96.10;;;;;;4987975;28;20698;-78
2022/05/18 04:15:18;;;;;;;;;;;16.40;96.20;;;;;;4987439;28;20180;-78
2022/05/18 04:17:48;;;;;;;;;;;16.40;96.20;;;;;;4986795;28;19931;-77
2022/05/18 04:20:16;;;;;;;;;;;16.40;96.20;;;;;;4979609;28;20674;-78
2022/05/18 04:22:44;;;;;;;;;;;16.30;96.10;;;;;;4984417;28;20290;-78
2022/05/18 04:25:12;;;;;;;;;;;16.30;96.10;;;;;;4987748;28;20930;-78
2022/05/18 04:27:39;;;;;;;;;;;16.30;96.10;;;;;;4999264;28;19936;-78
2022/05/18 04:30:07;;;;;;;;;;;16.30;96.10;;;;;;4982437;28;19933;-77
2022/05/18 04:32:34;;;;;;;;;;;16.30;96.10;;;;;;4983455;28;19937;-75
2022/05/18 04:35:03;;;;;;;;;;;16.20;96.00;;;;;;4984185;28;20458;-78
2022/05/18 04:37:30;;;;;;;;;;;16.20;96.00;;;;;;4980665;28;20120;-76
2022/05/18 04:39:57;;;;;;;;;;;16.20;96.00;;;;;;4980381;28;19933;-77
2022/05/18 04:42:24;;;;;;;;;;;16.20;96.10;;;;;;4984846;28;20343;-76
2022/05/18 04:44:51;;;;;;;;;;;16.20;96.00;;;;;;4985344;28;19936;-77
2022/05/18 04:47:21;;;;;;;;;;;16.10;96.00;;;;;;4987774;28;27069;-76
2022/05/18 04:49:49;;;;;;;;;;;16.10;96.00;;;;;;4985749;28;20047;-76
2022/05/18 04:52:18;;;;;;;;;;;16.10;96.00;;;;;;4981820;28;19940;-74
2022/05/18 04:54:48;;;;;;;;;;;16.10;96.10;;;;;;4975034;28;19972;-76
2022/05/18 04:57:15;;;;;;;;;;;16.10;96.10;;;;;;4981479;28;20655;-75
2022/05/18 04:59:42;;;;;;;;;;;16.00;96.00;;;;;;4984339;28;21218;-76
2022/05/18 05:02:09;;;;;;;;;;;16.10;96.00;;;;;;4988599;28;19937;-76
2022/05/18 05:04:38;;;;;;;;;;;16.00;95.90;;;;;;4985903;28;19972;-78
2022/05/18 05:07:05;;;;;;;;;;;16.00;95.90;;;;;;4984409;28;19977;-81
2022/05/18 05:09:33;;;;;;;;;;;16.00;95.90;;;;;;4980774;28;19987;-79
2022/05/18 05:12:01;;;;;;;;;;;15.90;96.40;;;;;;4979338;28;19933;-80
2022/05/18 05:14:28;;;;;;;;;;;15.90;96.70;;;;;;4984016;28;19933;-82
2022/05/18 05:16:55;;;;;;;;;;;15.80;97.20;;;;;;4987622;28;20023;-80
2022/05/18 05:19:24;;;;;;;;;;;15.80;97.40;;;;;;4979274;28;20071;-79
2022/05/18 05:21:51;;;;;;;;;;;15.70;97.40;;;;;;4972259;28;19933;-78
2022/05/18 05:24:20;;;;;;;;;;;15.70;97.40;;;;;;4992223;28;22470;-81
2022/05/18 05:26:49;;;;;;;;;;;15.70;97.40;;;;;;4981724;28;20407;-84
2022/05/18 05:29:17;;;;;;;;;;;15.70;97.40;;;;;;4983877;28;19940;-81
2022/05/18 05:31:44;;;;;;;;;;;15.70;97.60;;;;;;4989497;28;20081;-80
2022/05/18 05:34:13;;;;;;;;;;;15.70;97.60;;;;;;4980305;28;20904;-81
2022/05/18 05:36:40;;;;;;;;;;;15.60;97.50;;;;;;4985740;28;19980;-80
2022/05/18 05:39:07;;;;;;;;;;;15.70;97.60;;;;;;4982198;28;20058;-80
2022/05/18 05:41:36;;;;;;;;;;;15.70;97.60;;;;;;4984855;28;19933;-78
2022/05/18 05:44:10;;;;;;;;;;;15.70;97.50;;;;;;4983096;28;19925;-77
2022/05/18 05:46:46;;;;;;;;;;;15.70;97.60;;;;;;4981313;28;20307;-79
2022/05/18 05:49:14;;;;;;;;;;;15.80;97.70;;;;;;4983627;28;19929;-77
2022/05/18 05:51:41;;;;;;;;;;;15.80;97.70;;;;;;4982676;28;19951;-76
2022/05/18 05:54:08;;;;;;;;;;;15.80;97.70;;;;;;4979394;28;19941;-78
2022/05/18 05:56:36;;;;;;;;;;;15.80;97.70;;;;;;5001487;28;21727;-77
2022/05/18 05:59:03;;;;;;;;;;;15.80;97.70;;;;;;4979743;28;20039;-77
2022/05/18 06:01:33;;;;;;;;;;;15.80;97.70;;;;;;4980819;28;20473;-77
2022/05/18 06:04:07;;;;;;;;;;;15.80;97.90;;;;;;4985748;28;19936;-77
2022/05/18 06:06:39;;;;;;;;;;;15.80;98.10;;;;;;4988101;28;19933;-77
2022/05/18 06:09:12;;;;;;;;;;;15.90;98.40;;;;;;4984828;28;20751;-77
2022/05/18 06:11:42;;;;;;;;;;;15.90;98.20;;;;;;4997042;28;20071;-77
2022/05/18 06:14:10;;;;;;;;;;;15.90;98.20;;;;;;4980161;28;19949;-76
2022/05/18 06:16:39;;;;;;;;;;;15.90;98.20;;;;;;4989001;28;19952;-77
2022/05/18 06:19:06;;;;;;;;;;;16.00;98.30;;;;;;4987894;28;19936;-77
2022/05/18 06:21:32;;;;;;;;;;;16.00;98.40;;;;;;4979010;28;19933;-77
2022/05/18 06:23:59;;;;;;;;;;;16.10;99.10;;;;;;4978184;28;21513;-77
2022/05/18 06:26:29;;;;;;;;;;;16.10;98.90;;;;;;4977716;28;19929;-77
2022/05/18 06:28:57;;;;;;;;;;;16.20;98.90;;;;;;4978569;28;19929;-77
2022/05/18 06:31:27;;;;;;;;;;;16.20;98.80;;;;;;4985098;28;19929;-77
2022/05/18 06:33:59;;;;;;;;;;;16.20;98.70;;;;;;4984703;28;19933;-77
2022/05/18 06:36:35;;;;;;;;;;;16.20;98.70;;;;;;4982975;28;19952;-78
2022/05/18 06:39:04;;;;;;;;;;;16.20;98.70;;;;;;4986009;28;19929;-78
2022/05/18 06:41:32;;;;;;;;;;;16.20;98.70;;;;;;4986656;28;19948;-77
2022/05/18 06:44:03;;;;;;;;;;;16.20;98.70;;;;;;4984213;28;19925;-78
2022/05/18 06:46:43;;;;;;;;;;;16.20;98.70;;;;;;4980270;28;20403;-77
2022/05/18 06:49:18;;;;;;;;;;;16.20;98.80;;;;;;4984566;28;19983;-78
2022/05/18 06:51:55;;;;;;;;;;;16.20;98.80;;;;;;4987930;28;22276;-78
2022/05/18 06:54:23;;;;;;;;;;;16.30;98.80;;;;;;4983806;28;19931;-80
2022/05/18 06:56:55;;;;;;;;;;;16.30;98.90;;;;;;4986105;28;19925;-78
2022/05/18 06:59:31;;;;;;;;;;;16.30;98.90;;;;;;4987666;28;19971;-80
2022/05/18 07:02:01;;;;;;;;;;;16.40;99.00;;;;;;4983667;28;19933;-77
2022/05/18 07:04:43;;;;;;;;;;;16.40;99.00;;;;;;4986212;28;20018;-78
2022/05/18 07:07:10;;;;;;;;;;;16.40;99.10;;;;;;4989003;28;19929;-79
2022/05/18 07:09:41;;;;;;;;;;;16.50;99.10;;;;;;4987554;28;20383;-80
2022/05/18 07:12:09;;;;;;;;;;;16.40;99.10;;;;;;4982360;28;20594;-78
2022/05/18 07:14:39;;;;;;;;;;;16.50;99.20;;;;;;4984291;28;19935;-80
2022/05/18 07:17:07;;;;;;;;;;;16.50;99.20;;;;;;4986200;28;19959;-80
2022/05/18 07:19:48;;;;;;;;;;;16.50;99.20;;;;;;4986968;28;19959;-81
2022/05/18 07:22:15;;;;;;;;;;;16.60;99.30;;;;;;4987758;28;19982;-80
2022/05/18 07:24:46;;;;;;;;;;;16.60;99.30;;;;;;4985780;28;20849;-79
2022/05/18 07:27:13;;;;;;;;;;;16.60;99.30;;;;;;4989714;28;20015;-79
2022/05/18 07:29:42;;;;;;;;;;;16.70;99.40;;;;;;4988688;28;21838;-80
2022/05/18 07:32:13;;;;;;;;;;;16.70;99.40;;;;;;4997640;28;20394;-77
2022/05/18 07:34:48;;;;;;;;;;;16.70;99.40;;;;;;5003629;28;20524;-77
2022/05/18 07:37:20;;;;;;;;;;;16.70;99.40;;;;;;4982588;28;19933;-77
2022/05/18 07:39:47;;;;;;;;;;;16.70;99.40;;;;;;4991134;28;19935;-78
2022/05/18 07:42:16;;;;;;;;;;;16.70;99.50;;;;;;4987533;28;20529;-76
2022/05/18 07:44:51;;;;;;;;;;;16.80;99.50;;;;;;4984377;28;20919;-77
2022/05/18 07:47:20;;;;;;;;;;;16.80;99.50;;;;;;4984553;28;20465;-77
2022/05/18 07:49:49;;;;;;;;;;;16.80;99.50;;;;;;4986047;28;20039;-76
2022/05/18 07:52:19;;;;;;;;;;;16.90;99.50;;;;;;4986072;28;19934;-77
2022/05/18 07:54:47;;;;;;;;;;;16.90;99.50;;;;;;4987881;28;20465;-77
2022/05/18 07:57:20;;;;;;;;;;;16.90;99.60;;;;;;4983879;28;20387;-76
2022/05/18 08:00:02;;;;;;;;;;;16.90;99.60;;;;;;4985754;28;20679;-77
2022/05/18 08:02:40;;;;;;;;;;;16.90;99.60;;;;;;4988632;28;20019;-77
2022/05/18 08:05:11;;;;;;;;;;;16.90;99.60;;;;;;4988724;28;19944;-77
2022/05/18 08:07:45;;;;;;;;;;;16.90;99.60;;;;;;4987956;28;19933;-78
2022/05/18 08:16:03;;;;;;;;;;;17.00;99.70;;;;;;4987600;28;21088;-77
2022/05/18 08:18:30;;;;;;;;;;;17.00;99.80;;;;;;4985231;28;19929;-77
2022/05/18 08:21:01;;;;;;;;;;;17.00;99.80;;;;;;4986715;28;20193;-76
2022/05/18 08:23:32;;;;;;;;;;;17.00;99.80;;;;;;4983315;28;20468;-78
2022/05/18 08:26:01;;;;;;;;;;;17.00;99.80;;;;;;4991290;28;19929;-76
2022/05/18 08:28:37;;;;;;;;;;;17.10;99.90;;;;;;4989456;28;19945;-77
2022/05/18 08:31:04;;;;;;;;;;;17.10;99.90;;;;;;4983817;28;19929;-76
2022/05/18 08:33:35;;;;;;;;;;;17.10;99.90;;;;;;4986968;28;19944;-76
2022/05/18 08:36:09;;;;;;;;;;;17.10;99.90;;;;;;4985011;28;19932;-76
2022/05/18 08:38:38;;;;;;;;;;;17.10;99.90;;;;;;4987519;28;19937;-77
2022/05/18 08:41:14;;;;;;;;;;;17.10;99.90;;;;;;4984700;28;19984;-79
2022/05/18 08:43:44;;;;;;;;;;;17.10;99.90;;;;;;4989317;28;21153;-80
2022/05/18 08:46:14;;;;;;;;;;;17.20;99.90;;;;;;4995801;28;19925;-79
2022/05/18 08:48:47;;;;;;;;;;;17.20;99.90;;;;;;4992720;28;19940;-80
2022/05/18 08:51:24;;;;;;;;;;;17.20;99.90;;;;;;4983654;28;19933;-79
2022/05/18 08:54:00;;;;;;;;;;;17.20;99.90;;;;;;4984877;28;19929;-77
2022/05/18 08:56:35;;;;;;;;;;;17.30;99.90;;;;;;4986501;28;19933;-78
2022/05/18 08:59:05;;;;;;;;;;;17.30;99.90;;;;;;4990080;28;19929;-76
2022/05/18 09:01:36;;;;;;;;;;;17.30;99.90;;;;;;4983221;28;19933;-77
2022/05/18 09:04:09;;;;;;;;;;;17.30;99.90;;;;;;4987171;28;21965;-77
2022/05/18 09:06:42;;;;;;;;;;;17.30;99.90;;;;;;4985375;28;19939;-80
2022/05/18 09:11:55;;;;;;;;;;;17.30;99.90;;;;;;4990101;28;19925;-75
2022/05/18 09:14:23;;;;;;;;;;;17.40;99.90;;;;;;4985386;28;20427;-77
2022/05/18 09:17:01;;;;;;;;;;;17.40;99.90;;;;;;4993659;28;19925;-76
2022/05/18 09:19:39;;;;;;;;;;;17.40;99.90;;;;;;4984052;28;20418;-75
2022/05/18 09:22:12;;;;;;;;;;;17.40;99.90;;;;;;4982773;28;19933;-76
2022/05/18 09:24:50;;;;;;;;;;;17.50;99.90;;;;;;4982965;28;19931;-77
2022/05/18 09:27:34;;;;;;;;;;;17.50;99.90;;;;;;4985424;28;20016;-75
2022/05/18 09:30:12;;;;;;;;;;;17.50;99.90;;;;;;4984394;28;20370;-75
2022/05/18 09:32:53;;;;;;;;;;;17.50;99.90;;;;;;4983441;28;19935;-77
2022/05/18 09:35:31;;;;;;;;;;;17.60;99.90;;;;;;5001768;28;19932;-75
2022/05/18 09:38:04;;;;;;;;;;;17.60;99.90;;;;;;4980215;28;23164;-76
2022/05/18 09:40:37;;;;;;;;;;;17.60;99.90;;;;;;4985090;28;20198;-77
2022/05/18 09:43:11;;;;;;;;;;;17.60;99.90;;;;;;4986391;28;19929;-75
2022/05/18 09:45:45;;;;;;;;;;;17.60;99.90;;;;;;4998794;28;20458;-76
2022/05/18 09:48:20;;;;;;;;;;;17.70;99.90;;;;;;4986431;28;21860;-76
2022/05/18 09:50:52;;;;;;;;;;;17.70;99.90;;;;;;4987364;28;19960;-76
2022/05/18 09:53:21;;;;;;;;;;;17.70;99.90;;;;;;4985769;28;19940;-76
2022/05/18 09:55:52;;;;;;;;;;;17.70;99.90;;;;;;4983900;28;19940;-75
2022/05/18 09:58:23;;;;;;;;;;;17.70;99.90;;;;;;4987345;28;20407;-76
2022/05/18 10:07:26;;;;;;;;;;;17.80;99.90;;;;;;4984881;28;20026;-76
2022/05/18 10:09:37;;;;;;;;;;;18.30;99.90;;;;;;4972343;28;19933;-76
2022/05/18 10:12:12;;;;;;;;;;;18.40;99.90;;;;;;4985034;28;19932;-77
2022/05/18 10:14:40;;;;;;;;;;;18.50;99.90;;;;;;4985145;28;19940;-77
2022/05/18 10:17:10;;;;;;;;;;;18.50;99.90;;;;;;4988270;28;20407;-76
2022/05/18 10:19:38;;;;;;;;;;;18.60;99.90;;;;;;4985946;28;20463;-75
2022/05/18 10:22:06;;;;;;;;;;;18.70;99.80;;;;;;4986582;28;19925;-77
2022/05/18 10:24:37;;;;;;;;;;;18.70;99.60;;;;;;4993403;28;20303;-78
2022/05/18 10:27:06;;;;;;;;;;;18.80;99.80;;;;;;4991488;28;19933;-78
2022/05/18 10:29:33;;;;;;;;;;;18.90;99.70;;;;;;4992267;28;19936;-78
2022/05/18 10:32:03;;;;;;;;;;;19.00;99.60;;;;;;4992179;28;19940;-77
2022/05/18 10:34:36;;;;;;;;;;;19.10;99.70;;;;;;4990527;28;20631;-77
2022/05/18 10:37:03;;;;;;;;;;;19.10;99.90;;;;;;5001978;28;20036;-78
2022/05/18 10:39:32;;;;;;;;;;;19.20;99.90;;;;;;4992214;28;19983;-76
2022/05/18 10:42:02;;;;;;;;;;;19.30;99.90;;;;;;4989450;28;20064;-76
2022/05/18 10:44:32;;;;;;;;;;;19.40;99.90;;;;;;4988148;28;19933;-76
2022/05/18 10:47:12;;;;;;;;;;;19.60;99.60;;;;;;4987342;28;20012;-77
2022/05/18 10:49:42;;;;;;;;;;;19.60;99.30;;;;;;4986880;28;20448;-75
2022/05/18 10:52:11;;;;;;;;;;;19.60;99.30;;;;;;4987677;28;20303;-75
2022/05/18 10:54:40;;;;;;;;;;;19.50;99.50;;;;;;4989744;28;19933;-77
2022/05/18 10:57:13;;;;;;;;;;;19.50;99.70;;;;;;4985928;28;20411;-79
2022/05/18 10:59:49;;;;;;;;;;;19.70;99.60;;;;;;4987473;28;19929;-77
2022/05/18 11:02:21;;;;;;;;;;;19.70;99.30;;;;;;4987776;28;19933;-79
2022/05/18 11:04:51;;;;;;;;;;;19.70;99.60;;;;;;4988622;28;20462;-77
2022/05/18 11:07:21;;;;;;;;;;;19.80;99.30;;;;;;4988176;28;19929;-81
2022/05/18 11:09:48;;;;;;;;;;;19.80;98.70;;;;;;4992395;28;19944;-81
2022/05/18 11:12:23;;;;;;;;;;;19.80;99.50;;;;;;4984246;28;21013;-82
2022/05/18 11:14:55;;;;;;;;;;;20.00;99.10;;;;;;4988211;28;19933;-80
2022/05/18 11:17:26;;;;;;;;;;;20.00;98.90;;;;;;4991312;28;20149;-80
2022/05/18 11:19:59;;;;;;;;;;;20.10;99.30;;;;;;4996638;28;23969;-81
2022/05/18 11:22:30;;;;;;;;;;;20.20;99.40;;;;;;4992489;28;20732;-82
2022/05/18 11:25:03;;;;;;;;;;;20.20;99.60;;;;;;4989919;28;19979;-82
2022/05/18 11:27:37;;;;;;;;;;;20.20;99.90;;;;;;4986996;28;19940;-82
2022/05/18 11:30:07;;;;;;;;;;;20.30;99.90;;;;;;4985393;28;19935;-77
2022/05/18 11:32:39;;;;;;;;;;;20.40;99.80;;;;;;4997607;28;19937;-78
2022/05/18 11:35:25;;;;;;;;;;;20.50;99.70;;;;;;4996560;28;19996;-79
2022/05/18 11:37:57;;;;;;;;;;;20.70;99.00;;;;;;4996214;28;19933;-80
2022/05/18 11:40:27;;;;;;;;;;;20.80;98.50;;;;;;5002706;28;19929;-79
2022/05/18 11:43:25;;;;;;;;;;;21.00;98.70;;;;;;4993804;28;22508;-82
2022/05/18 11:45:54;;;;;;;;;;;20.90;98.40;;;;;;5016143;28;19988;-79
2022/05/18 11:48:27;;;;;;;;;;;20.70;98.30;;;;;;5003376;28;19932;-80
2022/05/18 11:50:59;;;;;;;;;;;20.50;98.20;;;;;;4995571;28;19928;-79
2022/05/18 11:53:40;;;;;;;;;;;20.40;98.50;;;;;;5019189;28;19925;-81
2022/05/18 11:56:12;;;;;;;;;;;20.30;98.60;;;;;;5002905;28;20470;-81
2022/05/18 11:58:52;;;;;;;;;;;20.20;98.70;;;;;;4997018;28;19986;-81
2022/05/18 12:01:23;;;;;;;;;;;20.20;98.80;;;;;;5002236;28;19930;-82
2022/05/18 12:04:05;;;;;;;;;;;20.10;98.70;;;;;;4998256;28;20115;-81
2022/05/18 12:06:45;;;;;;;;;;;20.20;98.40;;;;;;4997449;28;19972;-81
2022/05/18 12:09:31;;;;;;;;;;;20.20;98.40;;;;;;5008409;28;19940;-81
2022/05/18 12:12:04;;;;;;;;;;;20.20;98.40;;;;;;4991414;28;19944;-81
2022/05/18 12:14:37;;;;;;;;;;;20.20;98.60;;;;;;5009403;28;19970;-81
2022/05/18 12:17:07;;;;;;;;;;;20.20;98.80;;;;;;4992873;28;19925;-84
2022/05/18 12:19:39;;;;;;;;;;;20.20;98.50;;;;;;4996229;28;19929;-81
2022/05/18 12:22:08;;;;;;;;;;;20.20;98.70;;;;;;4995989;28;19933;-81
2022/05/18 12:24:36;;;;;;;;;;;20.20;98.80;;;;;;4997292;28;20024;-83
2022/05/18 12:27:04;;;;;;;;;;;20.20;98.60;;;;;;4997175;28;19944;-83
2022/05/18 12:29:32;;;;;;;;;;;20.30;98.60;;;;;;4990458;28;19934;-83
2022/05/18 12:32:01;;;;;;;;;;;20.30;98.30;;;;;;5004827;28;21102;-84
2022/05/18 12:34:39;;;;;;;;;;;20.30;98.00;;;;;;4996346;28;20590;-82
2022/05/18 12:37:16;;;;;;;;;;;20.30;98.30;;;;;;4993852;28;19969;-82
2022/05/18 12:39:44;;;;;;;;;;;20.30;98.40;;;;;;4995460;28;20034;-82
2022/05/18 12:42:14;;;;;;;;;;;20.40;98.30;;;;;;4996610;28;20411;-82
2022/05/18 12:44:42;;;;;;;;;;;20.40;98.50;;;;;;5008537;28;20307;-81
2022/05/18 12:47:24;;;;;;;;;;;20.40;97.90;;;;;;5008791;28;19940;-81
2022/05/18 12:49:56;;;;;;;;;;;20.50;98.00;;;;;;5001856;28;24389;-82
2022/05/18 12:52:33;;;;;;;;;;;20.50;97.70;;;;;;4987260;28;21495;-80
2022/05/18 12:55:02;;;;;;;;;;;20.50;97.60;;;;;;4995022;28;20507;-83
2022/05/18 12:57:44;;;;;;;;;;;20.50;97.80;;;;;;4992143;28;19933;-82
2022/05/18 13:00:41;;;;;;;;;;;20.60;97.90;;;;;;4989613;28;20486;-84
2022/05/18 13:03:29;;;;;;;;;;;20.60;97.70;;;;;;4997276;28;19953;-80
2022/05/18 13:05:59;;;;;;;;;;;20.70;98.30;;;;;;4991761;28;20306;-80
2022/05/18 13:08:49;;;;;;;;;;;20.70;97.60;;;;;;4990590;28;19929;-80
2022/05/18 13:11:28;;;;;;;;;;;20.70;97.50;;;;;;4990074;28;19933;-81
2022/05/18 13:13:57;;;;;;;;;;;20.80;97.70;;;;;;4986863;28;20284;-79
2022/05/18 13:16:39;;;;;;;;;;;20.80;97.90;;;;;;4984590;28;19933;-82
2022/05/18 13:19:18;;;;;;;;;;;20.90;98.30;;;;;;4989320;28;20023;-83
2022/05/18 13:21:47;;;;;;;;;;;20.90;98.00;;;;;;4983403;28;19933;-81
2022/05/18 13:24:15;;;;;;;;;;;20.90;97.90;;;;;;4983249;28;20048;-81
2022/05/18 13:26:43;;;;;;;;;;;21.00;97.40;;;;;;4984767;28;19939;-82
2022/05/18 13:29:13;;;;;;;;;;;21.30;96.40;;;;;;4977227;28;19940;-82
2022/05/18 13:31:43;;;;;;;;;;;21.50;96.30;;;;;;4980155;28;27724;-86
2022/05/18 13:34:12;;;;;;;;;;;21.70;96.50;;;;;;4988459;28;20028;-82
2022/05/18 13:36:46;;;;;;;;;;;22.00;94.60;;;;;;4978567;28;20430;-80
2022/05/18 13:39:18;;;;;;;;;;;22.40;94.00;;;;;;4977544;28;20060;-81
2022/05/18 13:41:46;;;;;;;;;;;22.20;93.30;;;;;;4981147;28;20185;-82
2022/05/18 13:44:13;;;;;;;;;;;22.10;92.60;;;;;;4986401;28;20091;-81
2022/05/18 13:46:41;;;;;;;;;;;22.10;92.80;;;;;;4980243;28;19940;-81
2022/05/18 13:49:15;;;;;;;;;;;22.00;92.60;;;;;;4979126;28;20142;-81
2022/05/18 13:51:50;;;;;;;;;;;22.00;92.50;;;;;;4972466;28;19953;-82
2022/05/18 13:54:25;;;;;;;;;;;22.00;92.40;;;;;;4979065;28;19936;-82
2022/05/18 13:57:03;;;;;;;;;;;22.00;92.80;;;;;;4992549;28;19955;-81
2022/05/18 13:59:34;;;;;;;;;;;22.00;93.70;;;;;;4994622;28;20134;-80
2022/05/18 14:02:14;;;;;;;;;;;22.00;94.20;;;;;;4992923;28;19933;-80
2022/05/18 14:04:43;;;;;;;;;;;22.00;94.70;;;;;;4993442;28;19933;-80
2022/05/18 14:07:18;;;;;;;;;;;22.00;94.90;;;;;;4994942;28;20920;-80
2022/05/18 14:09:48;;;;;;;;;;;21.90;95.10;;;;;;4990590;28;19934;-79
2022/05/18 14:12:21;;;;;;;;;;;22.00;95.30;;;;;;4988868;28;20015;-79
2022/05/18 14:14:52;;;;;;;;;;;22.00;95.40;;;;;;4993715;28;23017;-80
2022/05/18 14:17:36;;;;;;;;;;;22.00;95.40;;;;;;4994714;28;19929;-80
2022/05/18 14:20:25;;;;;;;;;;;22.10;95.50;;;;;;4992376;28;19936;-80
2022/05/18 14:22:59;;;;;;;;;;;22.10;95.60;;;;;;4988438;28;19933;-80
2022/05/18 14:25:39;;;;;;;;;;;22.10;95.70;;;;;;4998326;28;19933;-80
2022/05/18 14:28:17;;;;;;;;;;;22.20;95.70;;;;;;4995039;28;19940;-80
2022/05/18 14:30:45;;;;;;;;;;;22.20;95.60;;;;;;4994921;28;19933;-80
2022/05/18 14:33:27;;;;;;;;;;;22.20;95.50;;;;;;4995518;28;20680;-80
2022/05/18 14:35:56;;;;;;;;;;;22.20;95.40;;;;;;4989613;28;20424;-80
2022/05/18 14:38:30;;;;;;;;;;;22.30;95.40;;;;;;4998566;28;19933;-80
2022/05/18 14:41:01;;;;;;;;;;;22.30;95.30;;;;;;4992510;28;19925;-80
2022/05/18 14:43:33;;;;;;;;;;;22.30;95.30;;;;;;4993769;28;19988;-80
2022/05/18 14:46:05;;;;;;;;;;;22.30;95.30;;;;;;4993360;28;19932;-80
2022/05/18 14:48:51;;;;;;;;;;;22.30;95.40;;;;;;4997771;28;19933;-80
2022/05/18 14:51:20;;;;;;;;;;;22.40;95.40;;;;;;4998284;28;19933;-80
2022/05/18 14:53:53;;;;;;;;;;;22.50;95.60;;;;;;4991609;28;19940;-81